createdAt,value
2023-03-31T00:00:39.969Z,0.00
2023-03-31T00:01:40.226Z,0.00
2023-03-31T00:02:40.070Z,0.00
2023-03-31T00:03:40.008Z,0.00
2023-03-31T00:04:39.957Z,0.00
2023-03-31T00:05:39.890Z,0.00
2023-03-31T00:06:39.880Z,0.00
2023-03-31T00:07:39.891Z,0.00
2023-03-31T00:08:39.910Z,0.00
2023-03-31T00:09:39.900Z,0.00
2023-03-31T00:10:39.804Z,0.00
2023-03-31T00:11:39.792Z,0.00
2023-03-31T00:12:39.798Z,0.00
2023-03-31T00:13:39.753Z,0.00
2023-03-31T00:14:39.843Z,0.00
2023-03-31T00:15:39.808Z,0.00
2023-03-31T00:16:39.799Z,0.00
2023-03-31T00:17:39.723Z,0.00
2023-03-31T00:18:39.702Z,0.00
2023-03-31T00:19:39.651Z,0.00
2023-03-31T00:20:39.638Z,0.00
2023-03-31T00:21:39.651Z,0.00
2023-03-31T00:22:39.603Z,0.00
2023-03-31T00:23:39.619Z,0.00
2023-03-31T00:24:39.572Z,0.00
2023-03-31T00:25:39.572Z,0.00
2023-03-31T00:26:39.621Z,0.00
2023-03-31T00:27:39.528Z,0.00
2023-03-31T00:28:39.549Z,0.00
2023-03-31T00:29:39.491Z,0.00
2023-03-31T00:30:39.477Z,0.00
2023-03-31T00:31:39.486Z,0.00
2023-03-31T00:32:39.781Z,0.00
2023-03-31T00:33:39.520Z,0.00
2023-03-31T00:34:39.623Z,0.00
2023-03-31T00:35:39.536Z,0.00
2023-03-31T00:36:39.380Z,0.00
2023-03-31T00:37:39.349Z,0.00
2023-03-31T00:38:39.361Z,0.00
2023-03-31T00:39:39.353Z,0.00
2023-03-31T00:40:39.349Z,0.00
2023-03-31T00:41:39.430Z,0.00
2023-03-31T00:42:39.271Z,0.00
2023-03-31T00:43:39.287Z,0.00
2023-03-31T00:44:39.236Z,0.00
2023-03-31T00:45:39.242Z,0.00
2023-03-31T00:46:39.198Z,0.00
2023-03-31T00:47:39.216Z,0.00
2023-03-31T00:48:39.217Z,0.00
2023-03-31T00:49:39.166Z,0.00
2023-03-31T00:50:39.129Z,0.00
2023-03-31T00:51:39.131Z,0.00
2023-03-31T00:52:39.097Z,0.00
2023-03-31T00:53:39.120Z,0.00
2023-03-31T00:54:39.063Z,0.00
2023-03-31T00:55:39.145Z,0.00
2023-03-31T00:56:39.040Z,0.00
2023-03-31T00:57:39.017Z,0.00
2023-03-31T00:58:39.029Z,0.00
2023-03-31T00:59:39.003Z,0.00
2023-03-31T01:00:38.966Z,0.00
2023-03-31T01:01:38.985Z,0.00
2023-03-31T01:02:38.971Z,0.00
2023-03-31T01:03:38.983Z,0.00
2023-03-31T01:04:38.911Z,0.00
2023-03-31T01:05:38.882Z,0.00
2023-03-31T01:06:39.015Z,0.00
2023-03-31T01:07:38.849Z,0.00
2023-03-31T01:08:38.896Z,0.00
2023-03-31T01:09:38.885Z,0.00
2023-03-31T01:10:38.800Z,0.00
2023-03-31T01:11:38.777Z,0.00
2023-03-31T01:12:38.769Z,0.00
2023-03-31T01:13:38.775Z,0.00
2023-03-31T01:14:38.734Z,0.00
2023-03-31T01:15:38.737Z,0.00
2023-03-31T01:16:38.765Z,0.00
2023-03-31T01:17:38.884Z,0.00
2023-03-31T01:18:38.800Z,0.00
2023-03-31T01:19:38.662Z,0.00
2023-03-31T01:20:38.631Z,0.00
2023-03-31T01:21:38.634Z,0.00
2023-03-31T01:22:38.601Z,0.00
2023-03-31T01:23:38.615Z,0.00
2023-03-31T01:24:38.563Z,0.00
2023-03-31T01:25:38.562Z,0.00
2023-03-31T01:26:38.601Z,0.00
2023-03-31T01:27:38.535Z,0.00
2023-03-31T01:28:38.536Z,0.00
2023-03-31T01:29:38.486Z,0.00
2023-03-31T01:30:38.479Z,0.00
2023-03-31T01:31:38.516Z,0.00
2023-03-31T01:32:39.560Z,0.00
2023-03-31T01:33:38.458Z,0.00
2023-03-31T01:34:38.405Z,0.00
2023-03-31T01:35:38.398Z,0.00
2023-03-31T01:36:38.377Z,0.00
2023-03-31T01:37:38.377Z,0.00
2023-03-31T01:38:38.399Z,0.00
2023-03-31T01:39:38.327Z,0.00
2023-03-31T01:40:38.299Z,0.00
2023-03-31T01:41:38.295Z,0.00
2023-03-31T01:42:38.309Z,0.00
2023-03-31T01:43:38.375Z,0.00
2023-03-31T01:44:38.264Z,0.00
2023-03-31T01:45:38.441Z,0.00
2023-03-31T01:46:38.246Z,0.00
2023-03-31T01:47:39.096Z,0.00
2023-03-31T01:48:38.202Z,0.00
2023-03-31T01:49:38.160Z,0.00
2023-03-31T01:50:38.143Z,0.00
2023-03-31T01:51:38.121Z,0.00
2023-03-31T01:52:38.128Z,0.00
2023-03-31T01:53:38.129Z,0.00
2023-03-31T01:54:38.079Z,0.00
2023-03-31T01:55:38.058Z,0.00
2023-03-31T01:56:38.045Z,0.00
2023-03-31T01:57:38.030Z,0.00
2023-03-31T01:58:38.032Z,0.00
2023-03-31T01:59:37.998Z,0.00
2023-03-31T02:00:37.969Z,0.00
2023-03-31T02:01:38.006Z,0.00
2023-03-31T02:02:38.044Z,0.00
2023-03-31T02:03:38.071Z,0.00
2023-03-31T02:04:37.907Z,0.00
2023-03-31T02:05:37.900Z,0.00
2023-03-31T02:06:37.871Z,0.00
2023-03-31T02:07:37.866Z,0.00
2023-03-31T02:08:37.888Z,0.00
2023-03-31T02:09:37.835Z,0.00
2023-03-31T02:10:37.802Z,0.00
2023-03-31T02:11:37.788Z,0.00
2023-03-31T02:12:37.766Z,0.00
2023-03-31T02:13:37.780Z,0.00
2023-03-31T02:14:37.737Z,0.00
2023-03-31T02:15:37.717Z,0.00
2023-03-31T02:16:37.834Z,0.00
2023-03-31T02:17:37.707Z,0.00
2023-03-31T02:18:37.693Z,0.00
2023-03-31T02:19:37.649Z,0.00
2023-03-31T02:20:37.649Z,0.00
2023-03-31T02:21:37.703Z,0.00
2023-03-31T02:22:37.616Z,0.00
2023-03-31T02:23:37.610Z,0.00
2023-03-31T02:24:37.571Z,0.00
2023-03-31T02:25:37.552Z,0.00
2023-03-31T02:26:37.636Z,0.00
2023-03-31T02:27:37.560Z,0.00
2023-03-31T02:28:37.538Z,0.00
2023-03-31T02:29:37.478Z,0.00
2023-03-31T02:30:37.469Z,0.00
2023-03-31T02:31:37.448Z,0.00
2023-03-31T02:32:37.568Z,0.00
2023-03-31T02:33:37.469Z,0.00
2023-03-31T02:34:37.392Z,0.00
2023-03-31T02:35:37.414Z,0.00
2023-03-31T02:36:37.357Z,0.00
2023-03-31T02:37:37.369Z,0.00
2023-03-31T02:38:37.375Z,0.00
2023-03-31T02:39:37.317Z,0.00
2023-03-31T02:40:37.288Z,0.00
2023-03-31T02:41:37.295Z,0.00
2023-03-31T02:42:37.253Z,0.00
2023-03-31T02:43:37.318Z,0.00
2023-03-31T02:44:37.229Z,0.00
2023-03-31T02:45:37.284Z,0.00
2023-03-31T02:46:37.189Z,0.00
2023-03-31T02:47:37.242Z,0.00
2023-03-31T02:48:37.185Z,0.00
2023-03-31T02:49:37.135Z,0.00
2023-03-31T02:50:37.138Z,0.00
2023-03-31T02:51:37.104Z,0.00
2023-03-31T02:52:37.093Z,0.00
2023-03-31T02:53:38.104Z,0.00
2023-03-31T02:54:37.061Z,0.00
2023-03-31T02:55:37.034Z,0.00
2023-03-31T02:56:37.032Z,0.00
2023-03-31T02:57:36.994Z,0.00
2023-03-31T02:58:37.018Z,0.00
2023-03-31T02:59:36.965Z,0.00
2023-03-31T03:00:36.977Z,0.00
2023-03-31T03:01:36.974Z,0.00
2023-03-31T03:02:37.005Z,0.00
2023-03-31T03:03:37.009Z,0.00
2023-03-31T03:04:36.888Z,0.00
2023-03-31T03:05:36.905Z,0.00
2023-03-31T03:06:36.855Z,0.00
2023-03-31T03:07:36.849Z,0.00
2023-03-31T03:08:36.854Z,0.00
2023-03-31T03:09:36.808Z,0.00
2023-03-31T03:10:36.773Z,0.00
2023-03-31T03:11:36.772Z,0.00
2023-03-31T03:12:36.742Z,0.00
2023-03-31T03:13:36.760Z,0.00
2023-03-31T03:14:36.712Z,0.00
2023-03-31T03:15:36.703Z,0.00
2023-03-31T03:16:36.696Z,0.00
2023-03-31T03:17:36.697Z,0.00
2023-03-31T03:18:37.690Z,0.00
2023-03-31T03:19:36.637Z,0.00
2023-03-31T03:20:36.600Z,0.00
2023-03-31T03:21:36.608Z,0.00
2023-03-31T03:22:36.591Z,0.00
2023-03-31T03:23:36.599Z,0.00
2023-03-31T03:24:36.583Z,0.00
2023-03-31T03:25:36.529Z,0.00
2023-03-31T03:26:36.516Z,0.00
2023-03-31T03:27:36.493Z,0.00
2023-03-31T03:28:36.480Z,0.00
2023-03-31T03:29:36.517Z,0.00
2023-03-31T03:30:36.468Z,0.00
2023-03-31T03:31:36.428Z,0.00
2023-03-31T03:32:36.432Z,0.00
2023-03-31T03:33:36.429Z,0.00
2023-03-31T03:34:36.376Z,0.00
2023-03-31T03:35:36.372Z,0.00
2023-03-31T03:36:36.342Z,0.00
2023-03-31T03:37:36.348Z,0.00
2023-03-31T03:38:36.306Z,0.00
2023-03-31T03:39:36.323Z,0.00
2023-03-31T03:40:36.310Z,0.00
2023-03-31T03:41:36.271Z,0.00
2023-03-31T03:42:36.242Z,0.00
2023-03-31T03:43:36.330Z,0.00
2023-03-31T03:44:36.238Z,0.00
2023-03-31T03:45:36.239Z,0.00
2023-03-31T03:46:36.207Z,0.00
2023-03-31T03:47:36.262Z,0.00
2023-03-31T03:48:36.142Z,0.00
2023-03-31T03:49:36.145Z,0.00
2023-03-31T03:50:36.109Z,0.00
2023-03-31T03:51:36.093Z,0.00
2023-03-31T03:52:36.070Z,0.00
2023-03-31T03:53:36.046Z,0.00
2023-03-31T03:54:36.054Z,0.00
2023-03-31T03:55:36.009Z,0.00
2023-03-31T03:56:36.006Z,0.00
2023-03-31T03:57:35.977Z,0.00
2023-03-31T03:58:35.989Z,0.00
2023-03-31T03:59:35.974Z,0.00
2023-03-31T04:00:35.963Z,0.00
2023-03-31T04:01:35.939Z,0.00
2023-03-31T04:02:35.937Z,0.00
2023-03-31T04:03:35.878Z,0.00
2023-03-31T04:04:35.916Z,0.00
2023-03-31T04:05:35.837Z,0.00
2023-03-31T04:06:35.912Z,0.00
2023-03-31T04:07:35.805Z,0.00
2023-03-31T04:08:35.790Z,0.00
2023-03-31T04:09:35.795Z,0.00
2023-03-31T04:10:35.796Z,0.00
2023-03-31T04:11:35.754Z,0.00
2023-03-31T04:12:35.716Z,0.00
2023-03-31T04:13:35.729Z,0.00
2023-03-31T04:14:35.734Z,0.00
2023-03-31T04:15:35.671Z,0.00
2023-03-31T04:16:35.668Z,0.00
2023-03-31T04:17:35.663Z,0.00
2023-03-31T04:18:35.620Z,0.00
2023-03-31T04:19:35.652Z,0.00
2023-03-31T04:20:35.609Z,0.00
2023-03-31T04:21:35.652Z,0.00
2023-03-31T04:22:35.595Z,0.00
2023-03-31T04:23:35.543Z,0.00
2023-03-31T04:24:35.558Z,0.00
2023-03-31T04:25:35.502Z,0.00
2023-03-31T04:26:35.506Z,0.00
2023-03-31T04:27:35.472Z,0.00
2023-03-31T04:28:35.451Z,0.00
2023-03-31T04:29:35.469Z,0.00
2023-03-31T04:30:35.421Z,0.00
2023-03-31T04:31:36.489Z,0.00
2023-03-31T04:32:36.415Z,0.00
2023-03-31T04:33:35.383Z,0.00
2023-03-31T04:34:35.886Z,0.00
2023-03-31T04:35:35.357Z,0.00
2023-03-31T04:36:35.322Z,0.00
2023-03-31T04:37:35.303Z,0.00
2023-03-31T04:38:35.299Z,0.00
2023-03-31T04:39:35.312Z,0.00
2023-03-31T04:40:35.275Z,0.00
2023-03-31T04:41:35.239Z,0.00
2023-03-31T04:42:35.235Z,0.00
2023-03-31T04:43:35.202Z,0.00
2023-03-31T04:44:35.219Z,0.00
2023-03-31T04:45:35.213Z,0.00
2023-03-31T04:46:35.165Z,0.00
2023-03-31T04:47:35.217Z,0.00
2023-03-31T04:48:35.128Z,0.00
2023-03-31T04:49:35.141Z,0.00
2023-03-31T04:50:35.085Z,0.00
2023-03-31T04:51:35.076Z,0.00
2023-03-31T04:52:35.056Z,0.00
2023-03-31T04:53:35.036Z,0.00
2023-03-31T04:54:35.079Z,0.00
2023-03-31T04:55:35.022Z,0.00
2023-03-31T04:56:35.001Z,0.00
2023-03-31T04:57:35.046Z,0.00
2023-03-31T04:58:34.961Z,0.00
2023-03-31T04:59:34.978Z,0.00
2023-03-31T05:00:34.935Z,0.00
2023-03-31T05:01:34.996Z,0.00
2023-03-31T05:02:34.947Z,0.00
2023-03-31T05:03:35.086Z,0.00
2023-03-31T05:04:34.884Z,0.00
2023-03-31T05:05:34.848Z,0.00
2023-03-31T05:06:34.836Z,0.00
2023-03-31T05:07:34.832Z,0.00
2023-03-31T05:08:34.801Z,5.62
2023-03-31T05:09:35.146Z,5.62
2023-03-31T05:10:35.761Z,5.62
2023-03-31T05:11:34.745Z,5.62
2023-03-31T05:12:34.738Z,5.62
2023-03-31T05:13:34.710Z,5.62
2023-03-31T05:14:34.728Z,11.25
2023-03-31T05:15:35.159Z,11.25
2023-03-31T05:16:35.680Z,11.25
2023-03-31T05:17:34.734Z,11.25
2023-03-31T05:18:34.637Z,11.25
2023-03-31T05:19:34.656Z,11.25
2023-03-31T05:20:34.611Z,16.88
2023-03-31T05:21:34.599Z,16.88
2023-03-31T05:22:34.563Z,16.88
2023-03-31T05:23:34.554Z,22.50
2023-03-31T05:24:34.621Z,22.50
2023-03-31T05:25:34.534Z,22.50
2023-03-31T05:26:34.490Z,28.12
2023-03-31T05:27:34.489Z,28.12
2023-03-31T05:28:34.457Z,28.12
2023-03-31T05:29:34.471Z,33.75
2023-03-31T05:30:34.428Z,39.38
2023-03-31T05:31:34.441Z,45.00
2023-03-31T05:32:34.422Z,45.00
2023-03-31T05:33:34.387Z,45.00
2023-03-31T05:34:35.403Z,50.62
2023-03-31T05:35:34.372Z,56.25
2023-03-31T05:36:34.322Z,61.88
2023-03-31T05:37:34.332Z,67.50
2023-03-31T05:38:34.316Z,67.50
2023-03-31T05:39:34.309Z,73.12
2023-03-31T05:40:34.274Z,67.50
2023-03-31T05:41:34.256Z,61.88
2023-03-31T05:42:34.233Z,50.62
2023-03-31T05:43:34.208Z,45.00
2023-03-31T05:44:34.222Z,50.62
2023-03-31T05:45:34.168Z,56.25
2023-03-31T05:46:34.287Z,61.88
2023-03-31T05:47:34.166Z,67.50
2023-03-31T05:48:34.127Z,67.50
2023-03-31T05:49:34.163Z,67.50
2023-03-31T05:50:34.092Z,73.12
2023-03-31T05:51:34.081Z,67.50
2023-03-31T05:52:34.102Z,67.50
2023-03-31T05:53:34.087Z,61.88
2023-03-31T05:54:34.053Z,61.88
2023-03-31T05:55:34.025Z,56.25
2023-03-31T05:56:33.990Z,56.25
2023-03-31T05:57:34.044Z,50.62
2023-03-31T05:58:33.970Z,39.38
2023-03-31T05:59:34.028Z,39.38
2023-03-31T06:00:33.921Z,39.38
2023-03-31T06:01:34.007Z,45.00
2023-03-31T06:02:34.042Z,39.38
2023-03-31T06:03:33.912Z,39.38
2023-03-31T06:04:34.942Z,33.75
2023-03-31T06:05:33.832Z,39.38
2023-03-31T06:06:35.129Z,33.75
2023-03-31T06:07:33.800Z,33.75
2023-03-31T06:08:33.788Z,33.75
2023-03-31T06:09:33.796Z,33.75
2023-03-31T06:10:33.767Z,33.75
2023-03-31T06:11:33.736Z,28.12
2023-03-31T06:12:33.729Z,28.12
2023-03-31T06:13:33.705Z,33.75
2023-03-31T06:14:33.677Z,33.75
2023-03-31T06:15:33.760Z,45.00
2023-03-31T06:16:33.684Z,56.25
2023-03-31T06:17:33.690Z,56.25
2023-03-31T06:18:33.622Z,61.88
2023-03-31T06:19:33.665Z,73.12
2023-03-31T06:20:33.602Z,73.12
2023-03-31T06:21:33.571Z,84.38
2023-03-31T06:22:33.556Z,95.62
2023-03-31T06:23:33.585Z,95.62
2023-03-31T06:24:33.598Z,106.88
2023-03-31T06:25:47.778Z,95.62
2023-03-31T06:26:35.479Z,84.38
2023-03-31T06:27:33.479Z,101.25
2023-03-31T06:28:33.458Z,112.50
2023-03-31T06:29:33.445Z,118.12
2023-03-31T06:30:33.445Z,123.75
2023-03-31T06:31:33.438Z,140.62
2023-03-31T06:32:33.396Z,135.00
2023-03-31T06:33:33.383Z,151.88
2023-03-31T06:34:33.354Z,174.38
2023-03-31T06:35:33.418Z,157.50
2023-03-31T06:36:33.342Z,140.62
2023-03-31T06:37:33.384Z,135.00
2023-03-31T06:38:33.315Z,135.00
2023-03-31T06:39:33.266Z,123.75
2023-03-31T06:40:33.284Z,112.50
2023-03-31T06:41:33.324Z,101.25
2023-03-31T06:42:33.209Z,90.00
2023-03-31T06:43:33.223Z,73.12
2023-03-31T06:44:33.176Z,61.88
2023-03-31T06:45:33.247Z,45.00
2023-03-31T06:46:33.458Z,50.62
2023-03-31T06:47:33.163Z,50.62
2023-03-31T06:48:33.112Z,56.25
2023-03-31T06:49:33.115Z,61.88
2023-03-31T06:50:33.106Z,67.50
2023-03-31T06:51:33.072Z,73.12
2023-03-31T06:52:33.041Z,73.12
2023-03-31T06:53:33.032Z,67.50
2023-03-31T06:54:33.023Z,61.88
2023-03-31T06:55:33.016Z,56.25
2023-03-31T06:56:33.111Z,61.88
2023-03-31T06:57:33.078Z,61.88
2023-03-31T06:58:32.952Z,61.88
2023-03-31T06:59:32.942Z,61.88
2023-03-31T07:00:32.986Z,61.88
2023-03-31T07:01:32.963Z,61.88
2023-03-31T07:02:33.000Z,61.88
2023-03-31T07:03:32.924Z,67.50
2023-03-31T07:04:32.864Z,61.88
2023-03-31T07:05:32.870Z,61.88
2023-03-31T07:06:32.813Z,56.25
2023-03-31T07:07:32.800Z,50.62
2023-03-31T07:08:32.812Z,50.62
2023-03-31T07:09:32.770Z,56.25
2023-03-31T07:10:32.778Z,61.88
2023-03-31T07:11:32.740Z,61.88
2023-03-31T07:12:32.707Z,61.88
2023-03-31T07:13:32.711Z,61.88
2023-03-31T07:14:32.679Z,67.50
2023-03-31T07:15:33.964Z,67.50
2023-03-31T07:16:32.738Z,73.12
2023-03-31T07:17:32.632Z,73.12
2023-03-31T07:18:34.845Z,73.12
2023-03-31T07:19:32.596Z,73.12
2023-03-31T07:20:32.633Z,73.12
2023-03-31T07:21:32.563Z,78.75
2023-03-31T07:22:32.553Z,78.75
2023-03-31T07:23:32.528Z,78.75
2023-03-31T07:24:32.522Z,84.38
2023-03-31T07:25:32.585Z,84.38
2023-03-31T07:26:32.488Z,84.38
2023-03-31T07:27:32.471Z,84.38
2023-03-31T07:28:32.463Z,90.00
2023-03-31T07:29:32.461Z,90.00
2023-03-31T07:30:32.456Z,90.00
2023-03-31T07:31:32.466Z,95.62
2023-03-31T07:32:32.466Z,90.00
2023-03-31T07:33:32.402Z,90.00
2023-03-31T07:34:32.505Z,84.38
2023-03-31T07:35:32.399Z,84.38
2023-03-31T07:36:32.434Z,78.75
2023-03-31T07:37:32.315Z,78.75
2023-03-31T07:38:32.317Z,73.12
2023-03-31T07:39:32.278Z,73.12
2023-03-31T07:40:32.354Z,73.12
2023-03-31T07:41:32.246Z,73.12
2023-03-31T07:42:32.225Z,73.12
2023-03-31T07:43:32.213Z,73.12
2023-03-31T07:44:32.328Z,73.12
2023-03-31T07:45:32.206Z,73.12
2023-03-31T07:46:32.223Z,73.12
2023-03-31T07:47:32.147Z,73.12
2023-03-31T07:48:32.139Z,73.12
2023-03-31T07:49:32.096Z,67.50
2023-03-31T07:50:32.157Z,67.50
2023-03-31T07:51:32.065Z,61.88
2023-03-31T07:52:32.048Z,56.25
2023-03-31T07:53:32.051Z,56.25
2023-03-31T07:54:32.045Z,50.62
2023-03-31T07:55:32.135Z,50.62
2023-03-31T07:56:32.024Z,50.62
2023-03-31T07:57:33.147Z,50.62
2023-03-31T07:58:33.054Z,50.62
2023-03-31T07:59:32.258Z,50.62
2023-03-31T08:00:31.945Z,56.25
2023-03-31T08:01:31.890Z,56.25
2023-03-31T08:02:31.921Z,56.25
2023-03-31T08:03:31.888Z,61.88
2023-03-31T08:04:31.887Z,61.88
2023-03-31T08:05:31.857Z,61.88
2023-03-31T08:06:31.838Z,61.88
2023-03-31T08:07:31.794Z,67.50
2023-03-31T08:08:31.841Z,67.50
2023-03-31T08:09:31.758Z,67.50
2023-03-31T08:10:31.804Z,73.12
2023-03-31T08:11:31.815Z,73.12
2023-03-31T08:12:31.731Z,73.12
2023-03-31T08:13:31.687Z,73.12
2023-03-31T08:14:40.358Z,78.75
2023-03-31T08:15:33.693Z,78.75
2023-03-31T08:16:31.730Z,78.75
2023-03-31T08:17:31.630Z,78.75
2023-03-31T08:18:31.612Z,73.12
2023-03-31T08:19:31.586Z,78.75
2023-03-31T08:20:31.609Z,73.12
2023-03-31T08:21:31.555Z,73.12
2023-03-31T08:22:31.535Z,78.75
2023-03-31T08:23:31.518Z,84.38
2023-03-31T08:24:32.491Z,95.62
2023-03-31T08:25:31.535Z,101.25
2023-03-31T08:26:31.465Z,112.50
2023-03-31T08:27:31.441Z,118.12
2023-03-31T08:28:31.434Z,123.75
2023-03-31T08:29:31.408Z,129.38
2023-03-31T08:30:31.443Z,140.62
2023-03-31T08:31:31.433Z,151.88
2023-03-31T08:32:31.475Z,163.12
2023-03-31T08:33:31.352Z,168.75
2023-03-31T08:34:31.333Z,168.75
2023-03-31T08:35:31.350Z,174.38
2023-03-31T08:36:31.290Z,168.75
2023-03-31T08:37:31.286Z,174.38
2023-03-31T08:38:31.269Z,191.25
2023-03-31T08:39:31.365Z,208.12
2023-03-31T08:40:31.254Z,236.25
2023-03-31T08:41:31.256Z,247.50
2023-03-31T08:42:31.190Z,258.75
2023-03-31T08:43:31.179Z,258.75
2023-03-31T08:44:31.154Z,309.38
2023-03-31T08:45:31.233Z,326.25
2023-03-31T08:46:31.269Z,298.12
2023-03-31T08:47:31.118Z,298.12
2023-03-31T08:48:31.083Z,292.50
2023-03-31T08:49:31.098Z,281.25
2023-03-31T08:50:31.064Z,275.62
2023-03-31T08:51:31.077Z,253.12
2023-03-31T08:52:31.030Z,230.62
2023-03-31T08:53:31.004Z,202.50
2023-03-31T08:54:30.988Z,202.50
2023-03-31T08:55:30.976Z,202.50
2023-03-31T08:56:30.981Z,202.50
2023-03-31T08:57:30.994Z,196.88
2023-03-31T08:58:30.922Z,191.25
2023-03-31T08:59:30.900Z,191.25
2023-03-31T09:00:30.889Z,180.00
2023-03-31T09:01:32.537Z,174.38
2023-03-31T09:02:32.019Z,168.75
2023-03-31T09:03:30.967Z,168.75
2023-03-31T09:04:30.829Z,174.38
2023-03-31T09:05:30.810Z,174.38
2023-03-31T09:06:30.816Z,180.00
2023-03-31T09:07:30.793Z,180.00
2023-03-31T09:08:30.758Z,174.38
2023-03-31T09:09:30.736Z,174.38
2023-03-31T09:10:30.715Z,168.75
2023-03-31T09:11:30.771Z,174.38
2023-03-31T09:12:30.689Z,174.38
2023-03-31T09:13:30.673Z,180.00
2023-03-31T09:14:30.647Z,174.38
2023-03-31T09:15:30.632Z,174.38
2023-03-31T09:16:30.699Z,174.38
2023-03-31T09:17:30.699Z,185.62
2023-03-31T09:18:30.605Z,196.88
2023-03-31T09:19:30.557Z,213.75
2023-03-31T09:20:30.561Z,230.62
2023-03-31T09:21:30.580Z,241.88
2023-03-31T09:22:30.538Z,247.50
2023-03-31T09:23:30.514Z,258.75
2023-03-31T09:24:32.264Z,270.00
2023-03-31T09:25:31.473Z,275.62
2023-03-31T09:26:59.031Z,286.88
2023-03-31T09:27:30.442Z,292.50
2023-03-31T09:28:30.429Z,303.75
2023-03-31T09:29:30.397Z,315.00
2023-03-31T09:30:30.400Z,320.62
2023-03-31T09:31:30.427Z,331.88
2023-03-31T09:32:30.379Z,354.38
2023-03-31T09:33:30.332Z,354.38
2023-03-31T09:34:30.325Z,331.88
2023-03-31T09:35:30.346Z,326.25
2023-03-31T09:36:30.373Z,354.38
2023-03-31T09:37:30.282Z,393.75
2023-03-31T09:38:30.263Z,399.38
2023-03-31T09:39:30.233Z,393.75
2023-03-31T09:40:30.209Z,393.75
2023-03-31T09:41:31.839Z,416.25
2023-03-31T09:42:30.187Z,450.00
2023-03-31T09:43:30.193Z,489.38
2023-03-31T09:44:30.157Z,450.00
2023-03-31T09:45:30.144Z,472.50
2023-03-31T09:46:30.186Z,506.25
2023-03-31T09:47:30.161Z,579.38
2023-03-31T09:48:30.075Z,652.50
2023-03-31T09:49:30.073Z,585.00
2023-03-31T09:50:30.080Z,630.00
2023-03-31T09:51:30.073Z,635.62
2023-03-31T09:52:30.032Z,613.12
2023-03-31T09:53:30.067Z,630.00
2023-03-31T09:54:29.979Z,523.12
2023-03-31T09:55:39.776Z,556.88
2023-03-31T09:56:32.018Z,686.25
2023-03-31T09:57:31.978Z,736.88
2023-03-31T09:58:29.929Z,888.75
2023-03-31T09:59:29.897Z,1096.88
2023-03-31T10:00:29.906Z,1192.50
2023-03-31T10:01:29.942Z,1248.75
2023-03-31T10:02:29.884Z,1237.50
2023-03-31T10:03:29.864Z,1248.75
2023-03-31T10:04:29.865Z,1023.75
2023-03-31T10:05:29.800Z,1113.75
2023-03-31T10:06:29.834Z,1119.38
2023-03-31T10:07:29.785Z,1451.25
2023-03-31T10:08:29.754Z,1012.50
2023-03-31T10:09:29.748Z,759.38
2023-03-31T10:10:29.710Z,1029.38
2023-03-31T10:11:29.735Z,1080.00
2023-03-31T10:12:30.699Z,1608.75
2023-03-31T10:13:29.692Z,1237.50
2023-03-31T10:14:29.651Z,1147.50
2023-03-31T10:15:29.653Z,984.38
2023-03-31T10:16:29.697Z,1518.75
2023-03-31T10:17:29.647Z,1411.88
2023-03-31T10:18:29.621Z,1366.88
2023-03-31T10:19:29.577Z,1310.62
2023-03-31T10:20:29.551Z,1563.75
2023-03-31T10:21:29.583Z,3690.00
2023-03-31T10:22:29.539Z,3780.00
2023-03-31T10:23:29.518Z,1456.88
2023-03-31T10:24:29.498Z,1035.00
2023-03-31T10:25:29.481Z,781.88
2023-03-31T10:26:29.492Z,1355.62
2023-03-31T10:27:29.434Z,945.00
2023-03-31T10:28:29.418Z,748.12
2023-03-31T10:29:29.422Z,781.88
2023-03-31T10:30:29.382Z,1254.38
2023-03-31T10:31:29.440Z,1608.75
2023-03-31T10:32:29.497Z,1333.12
2023-03-31T10:33:29.365Z,1074.38
2023-03-31T10:34:29.323Z,1288.12
2023-03-31T10:35:29.287Z,1603.12
2023-03-31T10:36:29.325Z,2649.38
2023-03-31T10:37:29.303Z,2795.62
2023-03-31T10:38:29.234Z,1440.00
2023-03-31T10:39:29.389Z,1057.50
2023-03-31T10:40:29.224Z,1231.88
2023-03-31T10:41:29.239Z,3178.12
2023-03-31T10:42:29.227Z,2823.75
2023-03-31T10:43:29.339Z,2576.25
2023-03-31T10:44:29.136Z,1344.38
2023-03-31T10:45:37.337Z,2761.88
2023-03-31T10:46:31.121Z,2475.00
2023-03-31T10:47:29.167Z,3195.00
2023-03-31T10:48:29.078Z,1822.50
2023-03-31T10:49:29.053Z,2025.00
2023-03-31T10:50:29.048Z,3341.25
2023-03-31T10:51:29.023Z,961.88
2023-03-31T10:52:29.046Z,697.50
2023-03-31T10:53:28.972Z,601.88
2023-03-31T10:54:28.960Z,466.88
2023-03-31T10:55:28.960Z,410.62
2023-03-31T10:56:28.941Z,416.25
2023-03-31T10:57:29.022Z,556.88
2023-03-31T10:58:28.898Z,759.38
2023-03-31T10:59:28.871Z,748.12
2023-03-31T11:00:28.872Z,821.25
2023-03-31T11:01:28.892Z,1029.38
2023-03-31T11:02:28.948Z,1068.75
2023-03-31T11:04:28.793Z,1738.12
2023-03-31T11:05:28.785Z,1153.12
2023-03-31T11:06:28.758Z,1456.88
2023-03-31T11:07:28.777Z,1428.75
2023-03-31T11:08:28.727Z,1310.62
2023-03-31T11:09:28.713Z,1170.00
2023-03-31T11:10:28.695Z,883.12
2023-03-31T11:11:28.682Z,618.75
2023-03-31T11:12:28.694Z,658.12
2023-03-31T11:13:28.658Z,720.00
2023-03-31T11:14:30.830Z,680.62
2023-03-31T11:15:28.617Z,618.75
2023-03-31T11:16:28.725Z,506.25
2023-03-31T11:17:28.667Z,478.12
2023-03-31T11:18:28.541Z,523.12
2023-03-31T11:19:28.538Z,511.88
2023-03-31T11:20:30.686Z,472.50
2023-03-31T11:21:28.500Z,416.25
2023-03-31T11:22:28.509Z,405.00
2023-03-31T11:23:28.468Z,466.88
2023-03-31T11:24:28.472Z,720.00
2023-03-31T11:25:28.429Z,720.00
2023-03-31T11:26:30.740Z,658.12
2023-03-31T11:27:28.448Z,635.62
2023-03-31T11:28:28.387Z,826.88
2023-03-31T11:29:28.367Z,810.00
2023-03-31T11:30:28.375Z,849.38
2023-03-31T11:31:28.347Z,922.50
2023-03-31T11:32:30.067Z,900.00
2023-03-31T11:33:28.302Z,832.50
2023-03-31T11:34:28.302Z,855.00
2023-03-31T11:35:28.282Z,911.25
2023-03-31T11:36:28.253Z,961.88
2023-03-31T11:37:28.266Z,945.00
2023-03-31T11:38:28.221Z,900.00
2023-03-31T11:39:28.211Z,883.12
2023-03-31T11:40:28.173Z,894.38
2023-03-31T11:41:28.164Z,883.12
2023-03-31T11:42:28.204Z,905.62
2023-03-31T11:43:28.163Z,978.75
2023-03-31T11:44:28.221Z,1018.12
2023-03-31T11:45:28.106Z,1068.75
2023-03-31T11:46:28.138Z,1063.12
2023-03-31T11:47:28.101Z,1040.62
2023-03-31T11:48:28.036Z,933.75
2023-03-31T11:49:28.036Z,855.00
2023-03-31T11:50:28.006Z,860.62
2023-03-31T11:51:27.991Z,832.50
2023-03-31T11:52:28.007Z,843.75
2023-03-31T11:53:27.954Z,810.00
2023-03-31T11:54:27.964Z,793.12
2023-03-31T11:55:27.976Z,832.50
2023-03-31T11:56:27.925Z,866.25
2023-03-31T11:57:28.009Z,911.25
2023-03-31T11:58:27.880Z,1046.25
2023-03-31T11:59:27.873Z,1091.25
2023-03-31T12:00:27.854Z,945.00
2023-03-31T12:01:27.826Z,995.62
2023-03-31T12:02:27.962Z,961.88
2023-03-31T12:03:27.806Z,821.25
2023-03-31T12:04:27.783Z,787.50
2023-03-31T12:05:27.808Z,787.50
2023-03-31T12:06:27.827Z,759.38
2023-03-31T12:07:27.747Z,736.88
2023-03-31T12:08:27.702Z,697.50
2023-03-31T12:09:27.792Z,675.00
2023-03-31T12:10:27.694Z,646.88
2023-03-31T12:11:27.716Z,669.38
2023-03-31T12:12:27.689Z,652.50
2023-03-31T12:13:27.645Z,585.00
2023-03-31T12:14:27.634Z,562.50
2023-03-31T12:15:27.607Z,618.75
2023-03-31T12:16:27.627Z,635.62
2023-03-31T12:17:27.689Z,680.62
2023-03-31T12:18:27.608Z,810.00
2023-03-31T12:19:27.566Z,928.12
2023-03-31T12:20:27.562Z,967.50
2023-03-31T12:21:27.504Z,1006.88
2023-03-31T12:22:27.601Z,945.00
2023-03-31T12:23:27.536Z,905.62
2023-03-31T12:24:27.612Z,759.38
2023-03-31T12:25:27.517Z,607.50
2023-03-31T12:26:27.433Z,489.38
2023-03-31T12:27:27.479Z,461.25
2023-03-31T12:28:27.444Z,427.50
2023-03-31T12:29:27.440Z,399.38
2023-03-31T12:30:27.360Z,444.38
2023-03-31T12:31:27.382Z,466.88
2023-03-31T12:32:27.424Z,534.38
2023-03-31T12:33:27.433Z,596.25
2023-03-31T12:34:27.335Z,624.38
2023-03-31T12:35:27.392Z,607.50
2023-03-31T12:36:27.387Z,573.75
2023-03-31T12:37:27.338Z,551.25
2023-03-31T12:38:27.261Z,540.00
2023-03-31T12:39:27.269Z,540.00
2023-03-31T12:40:27.276Z,489.38
2023-03-31T12:41:27.337Z,472.50
2023-03-31T12:42:27.215Z,500.62
2023-03-31T12:43:27.267Z,551.25
2023-03-31T12:44:27.252Z,562.50
2023-03-31T12:45:27.336Z,585.00
2023-03-31T12:46:27.212Z,489.38
2023-03-31T12:47:27.187Z,427.50
2023-03-31T12:48:27.136Z,410.62
2023-03-31T12:49:27.063Z,517.50
2023-03-31T12:50:27.115Z,568.12
2023-03-31T12:51:27.034Z,556.88
2023-03-31T12:52:27.039Z,506.25